Time;durP1;ratioP1;P1;durP2;ratioP2;P2;SDS_P1;SDS_P2;PMS_P1;PMS_P2;Temp;Humidity;BMP_temperature;BMP_pressure;BME280_temperature;BME280_humidity;BME280_pressure;Samples;Min_cycle;Max_cycle;Signal;HPM_P1;HPM_P2
2021/12/23 00:00:50;;;;;;;;;;;21.90;45.00;;;;;;1531378;76;814;-67
2021/12/23 00:02:52;;;;;;;;;;;21.90;44.90;;;;;;1542705;76;790;-67
2021/12/23 00:04:53;;;;;;;;;;;21.90;44.90;;;;;;1541734;76;804;-68
2021/12/23 00:06:55;;;;;;;;;;;21.90;44.90;;;;;;1537499;76;872;-66
2021/12/23 00:08:59;;;;;;;;;;;21.90;44.80;;;;;;1547552;76;1929;-67
2021/12/23 00:11:01;;;;;;;;;;;21.90;44.70;;;;;;1548783;76;1670;-67
2021/12/23 00:13:03;;;;;;;;;;;21.90;45.00;;;;;;1538681;76;714;-67
2021/12/23 00:15:09;;;;;;;;;;;22.00;45.00;;;;;;1544043;76;674;-67
2021/12/23 00:17:27;;;;;;;;;;;21.90;44.80;;;;;;1543650;76;1507;-66
2021/12/23 00:23:51;;;;;;;;;;;21.90;44.80;;;;;;1539383;76;1634;-67
2021/12/23 00:25:53;;;;;;;;;;;22.00;44.90;;;;;;1539507;76;868;-66
2021/12/23 00:27:55;;;;;;;;;;;21.90;44.90;;;;;;1545253;76;1945;-67
2021/12/23 00:29:57;;;;;;;;;;;22.00;45.00;;;;;;1543734;76;753;-67
2021/12/23 00:31:59;;;;;;;;;;;22.00;44.90;;;;;;1544034;76;799;-66
2021/12/23 00:34:01;;;;;;;;;;;21.90;44.90;;;;;;1543570;76;828;-66
2021/12/23 00:36:05;;;;;;;;;;;22.00;44.80;;;;;;1535975;76;738;-66
2021/12/23 00:38:17;;;;;;;;;;;21.90;44.90;;;;;;1541400;76;1144;-67
2021/12/23 00:40:12;;;;;;;;;;;21.90;45.00;;;;;;1538379;76;1619;-67
2021/12/23 00:42:13;;;;;;;;;;;22.00;45.00;;;;;;1544603;76;730;-66
2021/12/23 00:44:15;;;;;;;;;;;22.00;45.00;;;;;;1544742;76;877;-66
2021/12/23 00:46:17;;;;;;;;;;;22.00;45.00;;;;;;1530656;76;765;-67
2021/12/23 00:48:19;;;;;;;;;;;22.00;45.00;;;;;;1520422;76;1943;-67
2021/12/23 00:50:21;;;;;;;;;;;22.00;45.10;;;;;;1525662;76;733;-66
2021/12/23 00:52:29;;;;;;;;;;;22.00;45.20;;;;;;1541222;76;795;-66
2021/12/23 00:54:27;;;;;;;;;;;21.90;45.10;;;;;;1537156;76;1724;-67
2021/12/23 00:56:29;;;;;;;;;;;22.00;45.00;;;;;;1531764;76;720;-67
2021/12/23 00:58:30;;;;;;;;;;;22.00;45.10;;;;;;1565010;71;2058;-68
2021/12/23 01:00:32;;;;;;;;;;;22.00;45.00;;;;;;1636391;72;782;-67
2021/12/23 01:02:34;;;;;;;;;;;22.00;45.00;;;;;;1629310;72;791;-67
2021/12/23 01:04:37;;;;;;;;;;;22.00;45.00;;;;;;1630454;72;715;-68
2021/12/23 01:06:39;;;;;;;;;;;22.00;45.00;;;;;;1632507;72;743;-67
2021/12/23 01:08:41;;;;;;;;;;;22.00;45.20;;;;;;1628576;72;1933;-66
2021/12/23 01:10:43;;;;;;;;;;;22.00;45.10;;;;;;1636774;72;777;-67
2021/12/23 01:12:53;;;;;;;;;;;22.00;45.10;;;;;;1623425;72;712;-67
2021/12/23 01:14:58;;;;;;;;;;;22.00;45.10;;;;;;1639918;72;1023;-67
2021/12/23 01:19:03;;;;;;;;;;;22.10;45.20;;;;;;1614978;72;1119;-66
2021/12/23 01:21:16;;;;;;;;;;;22.00;45.10;;;;;;1639829;72;688;-66
2021/12/23 01:23:09;;;;;;;;;;;22.10;45.20;;;;;;1621411;72;1112;-66
2021/12/23 01:25:11;;;;;;;;;;;22.10;45.20;;;;;;1638711;72;700;-66
2021/12/23 01:27:13;;;;;;;;;;;22.00;45.20;;;;;;1629907;72;729;-67
2021/12/23 01:29:14;;;;;;;;;;;22.00;45.20;;;;;;1637248;72;1992;-66
2021/12/23 01:31:16;;;;;;;;;;;22.10;45.20;;;;;;1631572;72;781;-66
2021/12/23 01:33:18;;;;;;;;;;;22.10;45.20;;;;;;1632146;72;730;-66
2021/12/23 01:35:20;;;;;;;;;;;22.10;45.30;;;;;;1638270;72;778;-66
2021/12/23 01:37:22;;;;;;;;;;;22.00;45.20;;;;;;1626562;72;701;-66
2021/12/23 01:39:24;;;;;;;;;;;22.10;45.30;;;;;;1639655;72;1079;-66
2021/12/23 01:41:26;;;;;;;;;;;22.00;45.20;;;;;;1643878;72;688;-67
2021/12/23 01:43:28;;;;;;;;;;;22.00;45.20;;;;;;1631779;72;747;-69
2021/12/23 01:45:30;;;;;;;;;;;22.10;45.40;;;;;;1639658;72;930;-65
2021/12/23 01:47:32;;;;;;;;;;;22.10;45.40;;;;;;1637146;72;720;-68
2021/12/23 01:49:34;;;;;;;;;;;22.10;45.50;;;;;;1629937;71;1934;-66
2021/12/23 01:51:35;;;;;;;;;;;22.10;45.50;;;;;;1624731;72;762;-66
2021/12/23 01:53:37;;;;;;;;;;;22.10;45.50;;;;;;1637550;72;741;-66
2021/12/23 01:55:41;;;;;;;;;;;22.10;45.50;;;;;;1636385;71;726;-66
2021/12/23 01:57:43;;;;;;;;;;;22.10;45.40;;;;;;1610920;72;1142;-66
2021/12/23 01:59:45;;;;;;;;;;;22.20;45.50;;;;;;1640672;72;787;-66
2021/12/23 02:01:47;;;;;;;;;;;22.10;45.50;;;;;;1638411;72;730;-67
2021/12/23 02:03:49;;;;;;;;;;;22.10;45.50;;;;;;1635513;72;732;-67
2021/12/23 02:05:52;;;;;;;;;;;22.20;45.50;;;;;;1631152;71;744;-66
2021/12/23 02:07:54;;;;;;;;;;;22.20;45.50;;;;;;1639286;72;1923;-67
2021/12/23 02:09:56;;;;;;;;;;;22.10;45.50;;;;;;1635583;72;763;-67
2021/12/23 02:11:58;;;;;;;;;;;22.20;45.50;;;;;;1627785;72;811;-67
2021/12/23 02:13:59;;;;;;;;;;;22.10;45.50;;;;;;1631001;72;607;-69
2021/12/23 02:16:02;;;;;;;;;;;22.10;45.50;;;;;;1629632;72;790;-67
2021/12/23 02:18:03;;;;;;;;;;;22.20;45.50;;;;;;1633112;71;1158;-69
2021/12/23 02:20:06;;;;;;;;;;;22.20;45.60;;;;;;1633151;71;749;-69
2021/12/23 02:22:08;;;;;;;;;;;22.10;45.60;;;;;;1634367;72;734;-68
2021/12/23 02:24:10;;;;;;;;;;;22.10;45.50;;;;;;1634941;72;785;-69
2021/12/23 02:26:12;;;;;;;;;;;22.20;45.50;;;;;;1641540;71;698;-67
2021/12/23 02:28:17;;;;;;;;;;;22.20;45.60;;;;;;1633578;72;1928;-67
2021/12/23 02:30:22;;;;;;;;;;;22.20;45.50;;;;;;1636339;72;1090;-69
2021/12/23 02:32:24;;;;;;;;;;;22.20;45.50;;;;;;1641115;72;753;-68
2021/12/23 02:34:26;;;;;;;;;;;22.20;45.70;;;;;;1644935;72;833;-68
2021/12/23 02:36:30;;;;;;;;;;;22.10;45.70;;;;;;1624911;72;711;-68
2021/12/23 02:38:31;;;;;;;;;;;22.10;45.70;;;;;;1644208;71;1274;-68
2021/12/23 02:40:34;;;;;;;;;;;22.10;45.70;;;;;;1643410;72;703;-67
2021/12/23 02:42:36;;;;;;;;;;;22.20;45.70;;;;;;1638010;72;1007;-68
2021/12/23 02:44:38;;;;;;;;;;;22.20;45.80;;;;;;1639803;72;764;-68
2021/12/23 02:46:40;;;;;;;;;;;22.20;45.80;;;;;;1634947;72;718;-68
2021/12/23 02:48:42;;;;;;;;;;;22.20;45.70;;;;;;1617239;72;1956;-67
2021/12/23 02:50:47;;;;;;;;;;;22.10;45.80;;;;;;1631083;72;703;-68
2021/12/23 02:52:49;;;;;;;;;;;22.20;45.70;;;;;;1620363;72;694;-66
2021/12/23 02:54:54;;;;;;;;;;;22.20;45.80;;;;;;1643596;72;760;-66
2021/12/23 02:56:56;;;;;;;;;;;22.20;45.80;;;;;;1640082;72;787;-67
2021/12/23 02:58:58;;;;;;;;;;;22.20;45.80;;;;;;1638173;72;1107;-67
2021/12/23 03:01:00;;;;;;;;;;;22.30;45.90;;;;;;1635325;72;742;-69
2021/12/23 03:03:02;;;;;;;;;;;22.20;45.60;;;;;;1633714;72;728;-69
2021/12/23 03:05:05;;;;;;;;;;;22.30;45.80;;;;;;1627301;72;728;-65
2021/12/23 03:07:06;;;;;;;;;;;22.20;45.70;;;;;;1641012;72;796;-68
2021/12/23 03:09:08;;;;;;;;;;;22.20;45.70;;;;;;1635722;72;1939;-66
2021/12/23 03:11:11;;;;;;;;;;;22.20;45.70;;;;;;1636110;72;716;-66
2021/12/23 03:13:13;;;;;;;;;;;22.20;45.60;;;;;;1643467;71;756;-66
2021/12/23 03:15:14;;;;;;;;;;;22.20;45.70;;;;;;1650241;71;698;-66
2021/12/23 03:17:16;;;;;;;;;;;22.20;45.70;;;;;;1635052;72;675;-66
2021/12/23 03:19:18;;;;;;;;;;;22.30;45.70;;;;;;1625130;71;1157;-67
2021/12/23 03:21:20;;;;;;;;;;;22.30;45.80;;;;;;1627321;72;683;-66
2021/12/23 03:23:22;;;;;;;;;;;22.30;45.80;;;;;;1622763;72;689;-66
2021/12/23 03:25:24;;;;;;;;;;;22.20;45.70;;;;;;1630087;72;667;-67
2021/12/23 03:27:26;;;;;;;;;;;22.20;45.80;;;;;;1639828;72;706;-69
2021/12/23 03:29:28;;;;;;;;;;;22.10;45.80;;;;;;1643574;71;1938;-66
2021/12/23 03:31:29;;;;;;;;;;;22.20;45.80;;;;;;1640613;72;778;-66
2021/12/23 03:33:31;;;;;;;;;;;22.30;46.00;;;;;;1640563;72;680;-66
2021/12/23 03:35:33;;;;;;;;;;;22.30;46.00;;;;;;1645293;72;696;-65
2021/12/23 03:37:35;;;;;;;;;;;22.20;46.10;;;;;;1639072;71;772;-65
2021/12/23 03:39:37;;;;;;;;;;;22.20;46.10;;;;;;1628448;72;759;-66
2021/12/23 03:41:39;;;;;;;;;;;22.10;46.00;;;;;;1639059;72;740;-66
2021/12/23 03:43:41;;;;;;;;;;;22.20;46.00;;;;;;1627782;72;738;-66
2021/12/23 03:45:43;;;;;;;;;;;22.20;46.00;;;;;;1639734;72;741;-64
2021/12/23 03:47:48;;;;;;;;;;;22.30;46.10;;;;;;1635905;71;1149;-67
2021/12/23 03:49:49;;;;;;;;;;;22.20;46.10;;;;;;1626403;72;1933;-66
2021/12/23 03:51:50;;;;;;;;;;;22.30;46.30;;;;;;1624220;72;790;-66
2021/12/23 03:53:52;;;;;;;;;;;22.20;46.30;;;;;;1644534;72;691;-67
2021/12/23 03:55:54;;;;;;;;;;;22.20;46.20;;;;;;1643398;72;698;-67
2021/12/23 03:57:56;;;;;;;;;;;22.30;46.30;;;;;;1644943;71;1131;-66
2021/12/23 03:59:58;;;;;;;;;;;22.30;46.40;;;;;;1630166;72;824;-67
2021/12/23 04:02:00;;;;;;;;;;;22.20;46.20;;;;;;1643048;71;683;-68
2021/12/23 04:04:02;;;;;;;;;;;22.20;46.30;;;;;;1641912;72;791;-66
2021/12/23 04:06:04;;;;;;;;;;;22.30;46.30;;;;;;1633071;72;792;-66
2021/12/23 04:08:06;;;;;;;;;;;22.20;46.30;;;;;;1635616;72;1130;-66
2021/12/23 04:10:08;;;;;;;;;;;22.30;46.30;;;;;;1632360;72;1941;-66
2021/12/23 04:12:10;;;;;;;;;;;22.40;46.30;;;;;;1638263;72;783;-67
2021/12/23 04:14:12;;;;;;;;;;;22.30;46.30;;;;;;1643777;72;691;-66
2021/12/23 04:16:14;;;;;;;;;;;22.30;46.30;;;;;;1642167;72;699;-67
2021/12/23 04:18:17;;;;;;;;;;;22.30;46.30;;;;;;1626225;72;1216;-67
2021/12/23 04:20:32;;;;;;;;;;;22.40;46.30;;;;;;1644488;72;765;-66
2021/12/23 04:22:24;;;;;;;;;;;22.30;46.30;;;;;;1629542;72;1022;-68
2021/12/23 04:24:25;;;;;;;;;;;22.40;46.30;;;;;;1633205;72;724;-68
2021/12/23 04:26:27;;;;;;;;;;;22.40;46.30;;;;;;1627611;72;731;-67
2021/12/23 04:28:30;;;;;;;;;;;22.30;46.40;;;;;;1638502;72;1138;-66
2021/12/23 04:30:31;;;;;;;;;;;22.40;46.40;;;;;;1643970;72;1910;-68
2021/12/23 04:32:33;;;;;;;;;;;22.40;46.30;;;;;;1644800;72;807;-66
2021/12/23 04:34:35;;;;;;;;;;;22.30;46.30;;;;;;1639923;72;758;-66
2021/12/23 04:36:37;;;;;;;;;;;22.40;46.30;;;;;;1637907;72;784;-67
2021/12/23 04:38:39;;;;;;;;;;;22.40;46.30;;;;;;1640704;72;1133;-67
2021/12/23 04:40:41;;;;;;;;;;;22.30;46.20;;;;;;1632189;72;699;-67
2021/12/23 04:42:43;;;;;;;;;;;22.30;46.30;;;;;;1642609;72;758;-68
2021/12/23 04:44:45;;;;;;;;;;;22.40;46.20;;;;;;1624788;72;680;-68
2021/12/23 04:46:47;;;;;;;;;;;22.30;46.10;;;;;;1640503;72;589;-68
2021/12/23 04:48:49;;;;;;;;;;;22.40;46.20;;;;;;1640895;71;1137;-70
2021/12/23 04:50:50;;;;;;;;;;;22.40;46.20;;;;;;1643720;72;1924;-66
2021/12/23 04:52:52;;;;;;;;;;;22.40;46.20;;;;;;1632358;71;682;-67
2021/12/23 04:54:54;;;;;;;;;;;22.40;46.20;;;;;;1644536;72;716;-66
2021/12/23 04:56:56;;;;;;;;;;;22.40;46.40;;;;;;1644891;71;709;-66
2021/12/23 04:58:58;;;;;;;;;;;22.40;46.30;;;;;;1638690;72;1118;-66
2021/12/23 05:01:00;;;;;;;;;;;22.40;46.30;;;;;;1645735;72;804;-67
2021/12/23 05:03:02;;;;;;;;;;;22.40;46.40;;;;;;1635522;72;782;-68
2021/12/23 05:05:04;;;;;;;;;;;22.40;46.30;;;;;;1640855;72;697;-70
2021/12/23 05:07:06;;;;;;;;;;;22.50;46.40;;;;;;1641249;72;735;-69
2021/12/23 05:09:08;;;;;;;;;;;22.40;46.30;;;;;;1639892;71;1947;-67
2021/12/23 05:11:10;;;;;;;;;;;22.40;46.30;;;;;;1646034;72;731;-67
2021/12/23 05:13:11;;;;;;;;;;;22.50;46.40;;;;;;1646631;72;703;-67
2021/12/23 05:15:17;;;;;;;;;;;22.50;46.40;;;;;;1638470;72;728;-66
2021/12/23 05:17:19;;;;;;;;;;;22.50;46.40;;;;;;1636583;72;971;-67
2021/12/23 05:19:21;;;;;;;;;;;22.50;46.40;;;;;;1626924;71;1106;-67
2021/12/23 05:21:23;;;;;;;;;;;22.50;46.40;;;;;;1626185;72;774;-68
2021/12/23 05:23:25;;;;;;;;;;;22.50;46.40;;;;;;1638986;72;793;-66
2021/12/23 05:25:26;;;;;;;;;;;22.50;46.30;;;;;;1635306;72;727;-66
2021/12/23 05:27:28;;;;;;;;;;;22.50;46.30;;;;;;1630594;72;738;-67
2021/12/23 05:29:30;;;;;;;;;;;22.50;46.30;;;;;;1622421;72;1941;-67
2021/12/23 05:31:32;;;;;;;;;;;22.50;46.30;;;;;;1636708;72;717;-67
2021/12/23 05:33:34;;;;;;;;;;;22.50;46.30;;;;;;1645000;72;679;-67
2021/12/23 05:35:36;;;;;;;;;;;22.50;46.40;;;;;;1632209;72;666;-68
2021/12/23 05:37:38;;;;;;;;;;;22.50;46.40;;;;;;1636742;71;1148;-68
2021/12/23 05:39:40;;;;;;;;;;;22.50;46.50;;;;;;1614615;72;732;-68
2021/12/23 05:41:41;;;;;;;;;;;22.50;46.40;;;;;;1609315;72;715;-66
2021/12/23 05:43:43;;;;;;;;;;;22.50;46.40;;;;;;1648313;72;803;-66
2021/12/23 05:45:45;;;;;;;;;;;22.50;46.30;;;;;;1632265;72;723;-66
2021/12/23 05:47:47;;;;;;;;;;;22.50;46.40;;;;;;1638288;72;1130;-67
2021/12/23 05:49:49;;;;;;;;;;;22.50;46.40;;;;;;1625948;72;1896;-67
2021/12/23 05:51:51;;;;;;;;;;;22.50;46.40;;;;;;1646096;72;716;-67
2021/12/23 05:53:53;;;;;;;;;;;22.50;46.40;;;;;;1638847;71;712;-69
2021/12/23 05:55:55;;;;;;;;;;;22.50;46.40;;;;;;1634442;72;692;-66
2021/12/23 05:57:56;;;;;;;;;;;22.50;46.40;;;;;;1635627;72;1170;-67
2021/12/23 05:59:58;;;;;;;;;;;22.50;46.30;;;;;;1640081;72;703;-66
2021/12/23 06:02:00;;;;;;;;;;;22.50;46.40;;;;;;1642646;72;811;-66
2021/12/23 06:04:02;;;;;;;;;;;22.50;46.60;;;;;;1645462;72;721;-67
2021/12/23 06:06:04;;;;;;;;;;;22.50;46.50;;;;;;1637506;72;701;-66
2021/12/23 06:08:06;;;;;;;;;;;22.60;46.50;;;;;;1645285;71;1171;-69
2021/12/23 06:10:08;;;;;;;;;;;22.60;46.50;;;;;;1635797;72;1933;-68
2021/12/23 06:12:10;;;;;;;;;;;22.50;46.50;;;;;;1632006;72;752;-66
2021/12/23 06:14:12;;;;;;;;;;;22.50;46.60;;;;;;1638514;72;779;-67
2021/12/23 06:16:14;;;;;;;;;;;22.50;46.70;;;;;;1635433;72;637;-68
2021/12/23 06:18:16;;;;;;;;;;;22.60;46.80;;;;;;1618893;72;1174;-66
2021/12/23 06:20:18;;;;;;;;;;;22.60;46.80;;;;;;1639174;72;770;-67
2021/12/23 06:22:20;;;;;;;;;;;22.60;46.80;;;;;;1646133;72;647;-66
2021/12/23 06:24:22;;;;;;;;;;;22.60;46.50;;;;;;1636032;72;857;-66
2021/12/23 06:26:24;;;;;;;;;;;22.60;46.40;;;;;;1638412;72;704;-67
2021/12/23 06:28:25;;;;;;;;;;;22.50;46.30;;;;;;1639971;72;1126;-66
2021/12/23 06:30:27;;;;;;;;;;;22.60;46.10;;;;;;1636503;72;1935;-68
2021/12/23 06:32:29;;;;;;;;;;;22.50;46.00;;;;;;1638743;72;818;-70
2021/12/23 06:34:31;;;;;;;;;;;22.50;46.00;;;;;;1619915;72;812;-67
2021/12/23 06:36:33;;;;;;;;;;;22.60;46.00;;;;;;1617327;72;698;-65
2021/12/23 06:38:35;;;;;;;;;;;22.60;46.20;;;;;;1624304;71;1144;-66
2021/12/23 06:40:37;;;;;;;;;;;22.60;46.00;;;;;;1638419;72;732;-65
2021/12/23 06:42:39;;;;;;;;;;;22.70;45.80;;;;;;1624489;72;728;-66
2021/12/23 06:44:41;;;;;;;;;;;22.70;46.00;;;;;;1645772;72;722;-66
2021/12/23 06:46:43;;;;;;;;;;;22.70;46.10;;;;;;1645075;72;691;-67
2021/12/23 06:48:44;;;;;;;;;;;22.60;45.90;;;;;;1627428;71;1171;-68
2021/12/23 06:50:46;;;;;;;;;;;22.70;46.00;;;;;;1641523;72;1931;-70
2021/12/23 06:52:49;;;;;;;;;;;22.70;46.00;;;;;;1639908;72;735;-68
2021/12/23 06:54:53;;;;;;;;;;;22.90;45.50;;;;;;1623800;72;816;-68
2021/12/23 06:56:54;;;;;;;;;;;23.00;44.90;;;;;;1623682;72;1477;-67
2021/12/23 06:58:56;;;;;;;;;;;23.10;44.70;;;;;;1624907;71;1140;-68
2021/12/23 07:00:58;;;;;;;;;;;23.10;44.50;;;;;;1623088;72;751;-68
2021/12/23 07:03:00;;;;;;;;;;;23.10;44.40;;;;;;1616266;72;793;-68
2021/12/23 07:05:02;;;;;;;;;;;23.10;44.40;;;;;;1627106;72;700;-67
2021/12/23 07:07:11;;;;;;;;;;;23.10;44.30;;;;;;1614961;72;726;-67
2021/12/23 07:09:13;;;;;;;;;;;23.10;44.30;;;;;;1631066;72;1110;-67
2021/12/23 07:11:15;;;;;;;;;;;23.00;44.10;;;;;;1638022;72;1932;-67
2021/12/23 07:13:17;;;;;;;;;;;23.00;44.10;;;;;;1640512;72;724;-67
2021/12/23 07:15:19;;;;;;;;;;;23.10;44.20;;;;;;1646831;72;708;-68
2021/12/23 07:17:20;;;;;;;;;;;23.10;44.10;;;;;;1641263;72;721;-67
2021/12/23 07:19:22;;;;;;;;;;;23.00;44.00;;;;;;1629524;71;1136;-67
2021/12/23 07:21:24;;;;;;;;;;;23.00;43.90;;;;;;1638997;72;751;-68
2021/12/23 07:23:26;;;;;;;;;;;23.10;44.10;;;;;;1628064;72;713;-68
2021/12/23 07:25:28;;;;;;;;;;;23.10;44.00;;;;;;1643903;72;768;-66
2021/12/23 07:27:30;;;;;;;;;;;23.00;43.90;;;;;;1624620;72;724;-69
2021/12/23 07:29:32;;;;;;;;;;;23.00;43.90;;;;;;1637460;72;1111;-67
2021/12/23 07:31:34;;;;;;;;;;;23.00;44.20;;;;;;1633600;72;1895;-68
2021/12/23 07:33:36;;;;;;;;;;;22.90;44.40;;;;;;1627244;72;899;-68
2021/12/23 07:35:38;;;;;;;;;;;22.90;44.50;;;;;;1635105;71;764;-67
2021/12/23 07:37:39;;;;;;;;;;;22.80;44.50;;;;;;1632503;72;1122;-68
2021/12/23 07:39:41;;;;;;;;;;;22.90;44.80;;;;;;1607305;73;721;-67
2021/12/23 07:41:43;;;;;;;;;;;22.80;44.90;;;;;;1617961;72;687;-67
2021/12/23 07:43:57;;;;;;;;;;;22.70;45.00;;;;;;1625103;72;772;-65
2021/12/23 07:45:49;;;;;;;;;;;22.70;45.20;;;;;;1633320;72;1490;-64
2021/12/23 07:47:51;;;;;;;;;;;22.70;45.50;;;;;;1632118;72;1146;-64
2021/12/23 07:49:52;;;;;;;;;;;22.70;45.70;;;;;;1628929;72;717;-64
2021/12/23 07:51:55;;;;;;;;;;;22.70;45.70;;;;;;1624344;72;1929;-65
2021/12/23 07:53:56;;;;;;;;;;;22.60;45.60;;;;;;1622737;72;808;-65
2021/12/23 07:55:58;;;;;;;;;;;22.60;45.60;;;;;;1624817;72;786;-66
2021/12/23 07:58:00;;;;;;;;;;;22.60;45.70;;;;;;1619896;72;1149;-68
2021/12/23 08:00:04;;;;;;;;;;;22.60;45.70;;;;;;1630458;72;726;-65
2021/12/23 08:02:06;;;;;;;;;;;22.60;45.80;;;;;;1627026;72;1068;-65
2021/12/23 08:04:07;;;;;;;;;;;22.60;45.70;;;;;;1624816;72;682;-64
2021/12/23 08:06:09;;;;;;;;;;;22.60;45.80;;;;;;1623174;71;711;-63
2021/12/23 08:08:11;;;;;;;;;;;22.60;45.80;;;;;;1626184;71;1172;-65
2021/12/23 08:10:14;;;;;;;;;;;22.60;45.70;;;;;;1623898;71;1938;-65
2021/12/23 08:12:15;;;;;;;;;;;22.60;45.80;;;;;;1619445;71;721;-65
2021/12/23 08:14:17;;;;;;;;;;;22.60;45.80;;;;;;1616169;71;721;-67
2021/12/23 08:16:19;;;;;;;;;;;22.60;45.70;;;;;;1615398;71;799;-64
2021/12/23 08:18:21;;;;;;;;;;;22.60;45.70;;;;;;1619450;71;1118;-65
2021/12/23 08:20:23;;;;;;;;;;;22.60;45.70;;;;;;1614601;71;791;-64
2021/12/23 08:22:25;;;;;;;;;;;22.60;45.60;;;;;;1615512;71;689;-64
2021/12/23 08:24:27;;;;;;;;;;;22.70;45.50;;;;;;1611809;71;735;-64
2021/12/23 08:26:29;;;;;;;;;;;22.80;45.40;;;;;;1618902;71;843;-68
2021/12/23 08:28:32;;;;;;;;;;;22.80;45.20;;;;;;1626299;71;1142;-67
2021/12/23 08:30:34;;;;;;;;;;;22.90;45.10;;;;;;1635261;71;1943;-67
2021/12/23 08:32:36;;;;;;;;;;;23.00;44.80;;;;;;1643504;72;844;-68
2021/12/23 08:34:38;;;;;;;;;;;23.10;44.70;;;;;;1639693;72;726;-69
2021/12/23 08:36:40;;;;;;;;;;;23.10;44.50;;;;;;1611874;72;715;-63
2021/12/23 08:38:42;;;;;;;;;;;23.10;44.40;;;;;;1640680;72;1213;-64
2021/12/23 08:40:44;;;;;;;;;;;23.20;44.20;;;;;;1624716;72;686;-66
2021/12/23 08:42:46;;;;;;;;;;;23.20;44.10;;;;;;1613898;72;728;-66
2021/12/23 08:44:48;;;;;;;;;;;23.20;43.90;;;;;;1640023;71;790;-66
2021/12/23 08:46:50;;;;;;;;;;;23.30;43.90;;;;;;1618321;72;691;-67
2021/12/23 08:48:52;;;;;;;;;;;23.30;43.90;;;;;;1619823;72;1209;-67
2021/12/23 08:50:54;;;;;;;;;;;23.30;44.00;;;;;;1633786;72;1916;-68
2021/12/23 08:52:56;;;;;;;;;;;23.20;44.00;;;;;;1640231;71;711;-68
2021/12/23 08:54:58;;;;;;;;;;;23.20;44.10;;;;;;1625981;71;730;-68
2021/12/23 08:57:00;;;;;;;;;;;23.10;44.20;;;;;;1615716;72;723;-69
2021/12/23 08:59:02;;;;;;;;;;;23.10;44.30;;;;;;1625065;71;1136;-68
2021/12/23 09:01:04;;;;;;;;;;;23.00;44.30;;;;;;1622270;72;736;-67
2021/12/23 09:03:06;;;;;;;;;;;23.00;44.50;;;;;;1617926;72;728;-69
2021/12/23 09:05:08;;;;;;;;;;;22.90;44.70;;;;;;1633190;72;722;-69
2021/12/23 09:07:12;;;;;;;;;;;22.90;44.80;;;;;;1630956;72;706;-70
2021/12/23 09:09:14;;;;;;;;;;;22.80;44.80;;;;;;1629406;71;1849;-68
2021/12/23 09:11:16;;;;;;;;;;;22.70;44.90;;;;;;1634864;71;1936;-68
2021/12/23 09:13:18;;;;;;;;;;;22.70;45.00;;;;;;1628613;72;731;-69
2021/12/23 09:15:20;;;;;;;;;;;22.70;45.20;;;;;;1642605;72;716;-68
2021/12/23 09:17:22;;;;;;;;;;;22.70;45.20;;;;;;1631133;72;602;-68
2021/12/23 09:19:23;;;;;;;;;;;22.60;45.20;;;;;;1629528;71;1133;-68
2021/12/23 09:21:25;;;;;;;;;;;22.60;45.30;;;;;;1630494;72;723;-69
2021/12/23 09:23:28;;;;;;;;;;;22.60;45.30;;;;;;1630763;72;718;-66
2021/12/23 09:25:33;;;;;;;;;;;22.60;45.40;;;;;;1635739;72;736;-67
2021/12/23 09:27:40;;;;;;;;;;;22.60;45.40;;;;;;1636608;72;1627;-68
2021/12/23 09:34:07;;;;;;;;;;;22.60;45.50;;;;;;1625789;72;1770;-67
2021/12/23 09:36:08;;;;;;;;;;;22.60;45.50;;;;;;1630829;72;697;-67
2021/12/23 09:38:10;;;;;;;;;;;22.60;45.50;;;;;;1627156;72;1134;-68
2021/12/23 09:40:12;;;;;;;;;;;22.60;45.50;;;;;;1639046;72;708;-67
2021/12/23 09:42:14;;;;;;;;;;;22.60;45.50;;;;;;1634033;72;707;-67
2021/12/23 09:44:16;;;;;;;;;;;22.60;45.60;;;;;;1631146;72;703;-67
2021/12/23 09:46:19;;;;;;;;;;;22.60;45.60;;;;;;1637920;72;723;-66
2021/12/23 09:48:21;;;;;;;;;;;22.60;45.50;;;;;;1629167;71;1139;-66
2021/12/23 09:50:24;;;;;;;;;;;22.60;45.60;;;;;;1627482;72;720;-67
2021/12/23 09:52:27;;;;;;;;;;;22.50;45.60;;;;;;1633098;72;1906;-67
2021/12/23 09:54:29;;;;;;;;;;;22.50;45.70;;;;;;1631833;72;1028;-69
2021/12/23 09:56:31;;;;;;;;;;;22.60;45.50;;;;;;1620650;71;702;-67
2021/12/23 09:58:33;;;;;;;;;;;22.50;45.40;;;;;;1639517;71;1115;-67
2021/12/23 10:00:37;;;;;;;;;;;22.50;45.40;;;;;;1633098;72;781;-67
2021/12/23 10:02:43;;;;;;;;;;;22.60;45.40;;;;;;1639599;72;726;-66
2021/12/23 10:04:43;;;;;;;;;;;22.60;45.40;;;;;;1627519;72;814;-68
2021/12/23 10:06:44;;;;;;;;;;;22.60;45.50;;;;;;1630435;72;704;-66
2021/12/23 10:08:46;;;;;;;;;;;22.50;45.50;;;;;;1633618;72;1208;-66
2021/12/23 10:10:54;;;;;;;;;;;22.50;45.50;;;;;;1626495;72;680;-69
2021/12/23 10:27:14;;;;;;;;;;;22.50;45.40;;;;;;1613355;72;661;-68
2021/12/23 10:31:36;;;;;;;;;;;22.60;45.40;;;;;;1624178;72;1910;-69
2021/12/23 10:38:06;;;;;;;;;;;22.60;45.60;;;;;;1627898;71;1248;-66
2021/12/23 10:40:10;;;;;;;;;;;22.50;45.70;;;;;;1617218;72;708;-67
2021/12/23 10:42:14;;;;;;;;;;;22.60;45.70;;;;;;1638006;72;739;-66
2021/12/23 10:44:16;;;;;;;;;;;22.50;45.70;;;;;;1627653;72;1137;-64
2021/12/23 10:46:22;;;;;;;;;;;22.60;45.70;;;;;;1612989;73;1207;-66
2021/12/23 10:48:25;;;;;;;;;;;22.50;45.80;;;;;;1620235;72;1111;-66
2021/12/23 10:50:40;;;;;;;;;;;22.60;45.80;;;;;;1629129;71;862;-67
2021/12/23 10:52:40;;;;;;;;;;;22.60;45.90;;;;;;1613036;72;1917;-69
2021/12/23 10:59:14;;;;;;;;;;;22.60;45.70;;;;;;1622315;71;1051;-68
2021/12/23 11:01:17;;;;;;;;;;;22.60;45.70;;;;;;1631179;72;1009;-67
2021/12/23 11:03:29;;;;;;;;;;;22.60;45.70;;;;;;1626082;71;821;-67
2021/12/23 11:05:34;;;;;;;;;;;22.60;45.70;;;;;;1636728;71;1135;-66
2021/12/23 11:08:26;;;;;;;;;;;22.60;45.60;;;;;;1628045;71;1121;-67
2021/12/23 11:10:04;;;;;;;;;;;22.50;45.70;;;;;;1614437;71;1008;-66
2021/12/23 11:37:51;;;;;;;;;;;22.60;45.60;;;;;;1628121;71;696;-66
2021/12/23 11:42:06;;;;;;;;;;;22.60;45.70;;;;;;1623898;71;655;-66
2021/12/23 11:43:58;;;;;;;;;;;22.60;45.70;;;;;;1622789;71;1541;-65
2021/12/23 11:46:01;;;;;;;;;;;22.60;45.60;;;;;;1619318;71;862;-67
2021/12/23 11:48:05;;;;;;;;;;;22.60;45.60;;;;;;1624412;71;1094;-66
2021/12/23 11:50:06;;;;;;;;;;;22.60;45.70;;;;;;1621665;71;1105;-65
2021/12/23 11:52:08;;;;;;;;;;;22.60;45.70;;;;;;1621413;71;1904;-67
2021/12/23 11:54:11;;;;;;;;;;;22.60;45.70;;;;;;1624790;71;754;-65
2021/12/23 11:56:13;;;;;;;;;;;22.60;45.80;;;;;;1615402;71;712;-66
2021/12/23 11:58:15;;;;;;;;;;;22.60;45.80;;;;;;1622354;71;1130;-67
2021/12/23 12:00:21;;;;;;;;;;;22.60;45.80;;;;;;1627693;71;663;-65
2021/12/23 12:02:21;;;;;;;;;;;22.60;45.80;;;;;;1629795;71;1085;-66
2021/12/23 12:04:30;;;;;;;;;;;22.60;45.80;;;;;;1620607;71;726;-65
2021/12/23 12:06:43;;;;;;;;;;;22.60;45.90;;;;;;1621074;71;694;-66
2021/12/23 12:08:45;;;;;;;;;;;22.60;45.90;;;;;;1627470;71;1224;-66
2021/12/23 12:10:46;;;;;;;;;;;22.60;45.90;;;;;;1635191;71;721;-65
2021/12/23 12:12:58;;;;;;;;;;;22.60;45.90;;;;;;1627909;71;1940;-66
2021/12/23 12:15:00;;;;;;;;;;;22.60;45.90;;;;;;1632556;71;728;-67
2021/12/23 12:17:20;;;;;;;;;;;22.60;46.00;;;;;;1629999;71;670;-65
2021/12/23 12:19:23;;;;;;;;;;;22.60;46.20;;;;;;1636894;71;1131;-65
2021/12/23 12:21:28;;;;;;;;;;;22.60;46.30;;;;;;1624359;71;975;-65
2021/12/23 12:23:30;;;;;;;;;;;22.60;46.40;;;;;;1624385;71;1601;-64
2021/12/23 12:25:44;;;;;;;;;;;22.90;45.20;;;;;;1624119;71;764;-66
2021/12/23 12:27:46;;;;;;;;;;;23.20;43.60;;;;;;1628688;71;1125;-63
2021/12/23 12:29:48;;;;;;;;;;;23.20;43.10;;;;;;1635643;71;703;-65
2021/12/23 12:31:50;;;;;;;;;;;23.30;43.20;;;;;;1641330;71;1937;-66
2021/12/23 12:33:55;;;;;;;;;;;23.20;43.10;;;;;;1623405;71;738;-66
2021/12/23 12:36:04;;;;;;;;;;;23.10;43.10;;;;;;1619945;71;1621;-66
2021/12/23 12:38:13;;;;;;;;;;;23.10;43.20;;;;;;1624647;71;1133;-65
2021/12/23 12:40:15;;;;;;;;;;;23.10;43.20;;;;;;1628703;71;692;-65
2021/12/23 12:42:18;;;;;;;;;;;23.10;43.40;;;;;;1628874;71;703;-65
2021/12/23 12:44:28;;;;;;;;;;;23.00;43.20;;;;;;1616186;71;1051;-65
2021/12/23 12:46:42;;;;;;;;;;;23.00;43.20;;;;;;1627256;71;1153;-65
2021/12/23 12:48:49;;;;;;;;;;;23.10;43.30;;;;;;1627962;71;1609;-67
2021/12/23 12:50:52;;;;;;;;;;;23.10;43.10;;;;;;1574308;74;1081;-66
2021/12/23 12:53:00;;;;;;;;;;;23.20;43.10;;;;;;1619442;71;1928;-66
2021/12/23 12:54:58;;;;;;;;;;;23.20;43.00;;;;;;1632155;71;1637;-67
2021/12/23 12:57:02;;;;;;;;;;;23.20;43.00;;;;;;1627982;71;774;-63
2021/12/23 12:59:05;;;;;;;;;;;23.20;43.00;;;;;;1625221;71;1152;-68
2021/12/23 13:01:08;;;;;;;;;;;23.20;42.90;;;;;;1630962;71;1208;-65
2021/12/23 13:03:17;;;;;;;;;;;23.20;42.90;;;;;;1623156;71;738;-66
2021/12/23 13:05:14;;;;;;;;;;;23.30;42.80;;;;;;1632727;71;1555;-68
2021/12/23 13:07:29;;;;;;;;;;;23.40;42.80;;;;;;1630866;71;733;-66
2021/12/23 13:09:32;;;;;;;;;;;23.40;42.60;;;;;;1626397;71;1126;-66
2021/12/23 13:11:34;;;;;;;;;;;23.30;42.60;;;;;;1624809;71;1193;-65
2021/12/23 13:13:45;;;;;;;;;;;23.40;42.60;;;;;;1594037;73;1931;-66
2021/12/23 13:15:46;;;;;;;;;;;23.40;42.50;;;;;;1624061;71;1173;-65